메인 페이지
METAR-TAF:

METAR-TAF

공항 :

왓따이 국제공항

비엔티안, 라오스

위도: 17-57N, 경도: 102-34E, 고도: 171m

현재 날씨관측

예보는 36분 전, 10:00시(UTC)에 발표되었습니다.
무풍
온도 33°C
습도 56%
기압 1008 hPa
시정 10km 이상
고도 2000ft 상공 구름 조금
고도 4000ft 상공 구름 조금

METAR: VLVT 161000Z 00000KT 9999 FEW020 FEW040 33/23 Q1008 NOSIG

시각: 17:36 (10:36 UTC)

예보

예보는 5 시간 36분 전, 05:00시(UTC)에 발표되었습니다.
예보 대상 시간: 16일 06시부터 17일 06시까지 (UTC)
북서4kt
시정: 8000m
고도 2000ft 상공 구름 보통
고도 20000ft 상공 구름 조금
일시적
16일 14시부터 16일 20시까지 (UTC)
시정: 3000m
고도 4000ft 상공 구름 보통
고도 20000ft 상공 구름 조금
박무

TAF: VLVT 160500Z 1606/1706 32004KT 8000 SCT020 FEW200 TEMPO 1614/1620 3000 BR SCT040 FEW200

4,000개 이상의 공항 관측 자료 및 예보 (METAR 및 TAF 보고).

지도상에서 검색 가능한 기상관측소가 노란 점과 빨간 점으로 표시되어 있습니다.

기상관측소 명을 보려면 표시 위로 마우스를 이동하세요.

날씨 관측과 예보를 보려면 클릭하세요.

지도 변경 : 확대하려면 엑스 표시가 있는 녹색 버튼, 축소하려면 빼기 표시가 있는 녹색 버튼, 다음 페이지의 지도를 보려면 녹색 화살표를 클릭하세요.


METAR-TAF: